KCFD

Coulter Field Airport

Bryan, Texas, USA

KCFD 110855Z AUTO 23004KT 10SM CLR 07/00 A3032 RMK AO2 T00721003

Observed Flight Rules
Dec-11 @ 08:55 UTC (22 minutes ago) Visual Flight Rules
Wind Visibility Clouds
230° at 4 knots 10 miles
  • Clear skies
Temperatures Readings
Current 7°C / 45°F
Dewpoint -0°C / 32°F
Humidity 61%
Altimeter 30.32" Hg
Pressure 1027 hPa
Elevation 112
Observed Flight Rules
Dec-11 @ 08:55 UTC
(22 minutes ago)
VFR
Wind Visibility
230° at 4 knots 10 miles
Clouds
  • Clear skies
Temperature Dewpoint
7°C / 45°F -0°C / 32°F
Humidity Altimeter Pressure
61% 30.32" Hg 1027 hPa